sensor_id;sensor_type;location;lat;lon;timestamp;P1;durP1;ratioP1;P2;durP2;ratioP2
14060;SDS011;7105;43.616;1.434;2022-10-17T00:01:06;9.68;;;4.13;;
14060;SDS011;7105;43.616;1.434;2022-10-17T00:03:32;10.20;;;4.95;;
14060;SDS011;7105;43.616;1.434;2022-10-17T00:05:58;11.27;;;4.15;;
14060;SDS011;7105;43.616;1.434;2022-10-17T00:08:29;6.78;;;4.00;;
14060;SDS011;7105;43.616;1.434;2022-10-17T00:10:58;11.60;;;4.78;;
14060;SDS011;7105;43.616;1.434;2022-10-17T00:13:26;9.75;;;4.38;;
14060;SDS011;7105;43.616;1.434;2022-10-17T00:15:52;12.05;;;4.45;;
14060;SDS011;7105;43.616;1.434;2022-10-17T00:18:18;11.23;;;4.68;;
14060;SDS011;7105;43.616;1.434;2022-10-17T00:20:44;9.75;;;4.63;;
14060;SDS011;7105;43.616;1.434;2022-10-17T00:23:09;11.48;;;4.45;;
14060;SDS011;7105;43.616;1.434;2022-10-17T00:25:35;11.77;;;4.70;;
14060;SDS011;7105;43.616;1.434;2022-10-17T00:28:01;12.50;;;4.78;;
14060;SDS011;7105;43.616;1.434;2022-10-17T00:30:27;8.85;;;4.57;;
14060;SDS011;7105;43.616;1.434;2022-10-17T00:32:53;9.65;;;4.93;;
14060;SDS011;7105;43.616;1.434;2022-10-17T00:35:18;12.05;;;4.90;;
14060;SDS011;7105;43.616;1.434;2022-10-17T00:37:44;11.23;;;4.68;;
14060;SDS011;7105;43.616;1.434;2022-10-17T00:40:10;8.40;;;4.65;;
14060;SDS011;7105;43.616;1.434;2022-10-17T00:42:36;10.48;;;4.57;;
14060;SDS011;7105;43.616;1.434;2022-10-17T00:45:06;13.05;;;5.57;;
14060;SDS011;7105;43.616;1.434;2022-10-17T00:48:02;7.30;;;4.82;;
14060;SDS011;7105;43.616;1.434;2022-10-17T00:50:30;10.27;;;4.75;;
14060;SDS011;7105;43.616;1.434;2022-10-17T00:52:57;7.60;;;4.18;;
14060;SDS011;7105;43.616;1.434;2022-10-17T00:55:27;12.43;;;5.20;;
14060;SDS011;7105;43.616;1.434;2022-10-17T00:57:57;10.05;;;4.70;;
14060;SDS011;7105;43.616;1.434;2022-10-17T01:00:24;9.98;;;4.45;;
14060;SDS011;7105;43.616;1.434;2022-10-17T01:02:50;6.75;;;4.63;;
14060;SDS011;7105;43.616;1.434;2022-10-17T01:05:16;12.13;;;4.45;;
14060;SDS011;7105;43.616;1.434;2022-10-17T01:07:43;11.13;;;4.72;;
14060;SDS011;7105;43.616;1.434;2022-10-17T01:10:11;10.18;;;4.60;;
14060;SDS011;7105;43.616;1.434;2022-10-17T01:12:59;10.65;;;4.60;;
14060;SDS011;7105;43.616;1.434;2022-10-17T01:16:35;10.15;;;5.05;;
14060;SDS011;7105;43.616;1.434;2022-10-17T01:21:31;9.45;;;4.60;;
14060;SDS011;7105;43.616;1.434;2022-10-17T01:29:20;10.88;;;5.00;;
14060;SDS011;7105;43.616;1.434;2022-10-17T01:32:07;7.78;;;4.53;;
14060;SDS011;7105;43.616;1.434;2022-10-17T01:37:47;8.63;;;4.93;;
14060;SDS011;7105;43.616;1.434;2022-10-17T01:40:38;15.60;;;5.40;;
14060;SDS011;7105;43.616;1.434;2022-10-17T01:43:12;11.32;;;5.18;;
14060;SDS011;7105;43.616;1.434;2022-10-17T01:45:57;8.32;;;4.57;;
14060;SDS011;7105;43.616;1.434;2022-10-17T01:48:30;9.43;;;4.80;;
14060;SDS011;7105;43.616;1.434;2022-10-17T01:56:44;10.05;;;4.65;;
14060;SDS011;7105;43.616;1.434;2022-10-17T01:59:19;7.90;;;4.05;;
14060;SDS011;7105;43.616;1.434;2022-10-17T02:01:51;7.65;;;4.45;;
14060;SDS011;7105;43.616;1.434;2022-10-17T02:04:19;10.18;;;4.43;;
14060;SDS011;7105;43.616;1.434;2022-10-17T02:06:45;13.27;;;4.85;;
14060;SDS011;7105;43.616;1.434;2022-10-17T02:09:24;8.60;;;4.20;;
14060;SDS011;7105;43.616;1.434;2022-10-17T02:14:55;7.07;;;4.20;;
14060;SDS011;7105;43.616;1.434;2022-10-17T02:17:46;9.98;;;4.45;;
14060;SDS011;7105;43.616;1.434;2022-10-17T02:26:10;9.10;;;4.28;;
14060;SDS011;7105;43.616;1.434;2022-10-17T02:29:09;7.30;;;3.80;;
14060;SDS011;7105;43.616;1.434;2022-10-17T02:31:52;9.13;;;3.70;;
14060;SDS011;7105;43.616;1.434;2022-10-17T02:34:28;13.05;;;4.18;;
14060;SDS011;7105;43.616;1.434;2022-10-17T02:37:10;9.88;;;4.00;;
14060;SDS011;7105;43.616;1.434;2022-10-17T02:39:40;12.93;;;4.10;;
14060;SDS011;7105;43.616;1.434;2022-10-17T02:42:08;8.10;;;4.45;;
14060;SDS011;7105;43.616;1.434;2022-10-17T02:44:36;9.32;;;3.97;;
14060;SDS011;7105;43.616;1.434;2022-10-17T02:50:11;11.02;;;3.90;;
14060;SDS011;7105;43.616;1.434;2022-10-17T02:53:10;7.35;;;3.60;;
14060;SDS011;7105;43.616;1.434;2022-10-17T02:55:34;10.32;;;4.20;;
14060;SDS011;7105;43.616;1.434;2022-10-17T02:58:10;8.63;;;3.92;;
14060;SDS011;7105;43.616;1.434;2022-10-17T03:00:45;7.57;;;3.83;;
14060;SDS011;7105;43.616;1.434;2022-10-17T03:03:27;9.68;;;4.60;;
14060;SDS011;7105;43.616;1.434;2022-10-17T03:05:54;10.40;;;3.67;;
14060;SDS011;7105;43.616;1.434;2022-10-17T03:08:20;7.93;;;3.33;;
14060;SDS011;7105;43.616;1.434;2022-10-17T03:10:46;13.80;;;4.22;;
14060;SDS011;7105;43.616;1.434;2022-10-17T03:13:13;8.95;;;3.45;;
14060;SDS011;7105;43.616;1.434;2022-10-17T03:15:39;7.05;;;3.17;;
14060;SDS011;7105;43.616;1.434;2022-10-17T03:18:04;10.38;;;3.60;;
14060;SDS011;7105;43.616;1.434;2022-10-17T03:20:30;11.48;;;4.00;;
14060;SDS011;7105;43.616;1.434;2022-10-17T03:22:56;8.77;;;3.47;;
14060;SDS011;7105;43.616;1.434;2022-10-17T03:25:22;7.95;;;3.95;;
14060;SDS011;7105;43.616;1.434;2022-10-17T03:27:48;7.00;;;3.67;;
14060;SDS011;7105;43.616;1.434;2022-10-17T03:30:13;6.72;;;3.50;;
14060;SDS011;7105;43.616;1.434;2022-10-17T03:32:39;11.15;;;3.55;;
14060;SDS011;7105;43.616;1.434;2022-10-17T03:35:05;14.27;;;3.80;;
14060;SDS011;7105;43.616;1.434;2022-10-17T03:37:31;8.98;;;3.95;;
14060;SDS011;7105;43.616;1.434;2022-10-17T03:39:56;7.05;;;3.33;;
14060;SDS011;7105;43.616;1.434;2022-10-17T03:42:22;12.98;;;3.90;;
14060;SDS011;7105;43.616;1.434;2022-10-17T03:44:48;7.50;;;3.60;;
14060;SDS011;7105;43.616;1.434;2022-10-17T03:47:13;8.82;;;3.50;;
14060;SDS011;7105;43.616;1.434;2022-10-17T03:49:39;10.68;;;4.13;;
14060;SDS011;7105;43.616;1.434;2022-10-17T03:52:04;10.70;;;3.88;;
14060;SDS011;7105;43.616;1.434;2022-10-17T03:54:30;10.45;;;3.67;;
14060;SDS011;7105;43.616;1.434;2022-10-17T03:56:56;7.50;;;3.75;;
14060;SDS011;7105;43.616;1.434;2022-10-17T03:59:21;6.78;;;2.85;;
14060;SDS011;7105;43.616;1.434;2022-10-17T04:01:47;7.15;;;3.38;;
14060;SDS011;7105;43.616;1.434;2022-10-17T04:04:13;8.43;;;3.50;;
14060;SDS011;7105;43.616;1.434;2022-10-17T04:06:39;10.52;;;3.67;;
14060;SDS011;7105;43.616;1.434;2022-10-17T04:09:05;10.35;;;3.67;;
14060;SDS011;7105;43.616;1.434;2022-10-17T04:11:31;8.07;;;4.00;;
14060;SDS011;7105;43.616;1.434;2022-10-17T04:13:57;5.65;;;3.17;;
14060;SDS011;7105;43.616;1.434;2022-10-17T04:16:25;7.93;;;4.03;;
14060;SDS011;7105;43.616;1.434;2022-10-17T04:18:52;9.52;;;3.20;;
14060;SDS011;7105;43.616;1.434;2022-10-17T04:21:19;8.00;;;3.47;;
14060;SDS011;7105;43.616;1.434;2022-10-17T04:23:46;7.60;;;3.17;;
14060;SDS011;7105;43.616;1.434;2022-10-17T04:26:12;9.18;;;3.75;;
14060;SDS011;7105;43.616;1.434;2022-10-17T04:28:37;6.53;;;3.22;;
14060;SDS011;7105;43.616;1.434;2022-10-17T04:31:04;8.45;;;3.40;;
14060;SDS011;7105;43.616;1.434;2022-10-17T04:33:31;10.55;;;3.15;;
14060;SDS011;7105;43.616;1.434;2022-10-17T04:38:24;7.78;;;3.47;;
14060;SDS011;7105;43.616;1.434;2022-10-17T04:40:50;8.60;;;3.58;;
14060;SDS011;7105;43.616;1.434;2022-10-17T04:43:16;9.25;;;3.50;;
14060;SDS011;7105;43.616;1.434;2022-10-17T04:45:41;6.35;;;3.20;;
14060;SDS011;7105;43.616;1.434;2022-10-17T04:48:07;9.48;;;3.92;;
14060;SDS011;7105;43.616;1.434;2022-10-17T04:50:33;10.20;;;3.55;;
14060;SDS011;7105;43.616;1.434;2022-10-17T04:52:58;7.80;;;3.22;;
14060;SDS011;7105;43.616;1.434;2022-10-17T04:55:24;9.60;;;3.65;;
14060;SDS011;7105;43.616;1.434;2022-10-17T04:57:49;7.75;;;4.15;;
14060;SDS011;7105;43.616;1.434;2022-10-17T05:00:15;10.95;;;3.63;;
14060;SDS011;7105;43.616;1.434;2022-10-17T05:02:41;10.40;;;3.90;;
14060;SDS011;7105;43.616;1.434;2022-10-17T05:05:07;10.80;;;4.38;;
14060;SDS011;7105;43.616;1.434;2022-10-17T05:07:33;12.40;;;3.70;;
14060;SDS011;7105;43.616;1.434;2022-10-17T05:09:58;14.20;;;4.20;;
14060;SDS011;7105;43.616;1.434;2022-10-17T05:12:24;9.45;;;3.55;;
14060;SDS011;7105;43.616;1.434;2022-10-17T05:14:50;12.10;;;3.63;;
14060;SDS011;7105;43.616;1.434;2022-10-17T05:17:16;10.43;;;3.67;;
14060;SDS011;7105;43.616;1.434;2022-10-17T05:19:41;7.93;;;3.70;;
14060;SDS011;7105;43.616;1.434;2022-10-17T05:22:07;12.02;;;4.40;;
14060;SDS011;7105;43.616;1.434;2022-10-17T05:24:33;9.65;;;3.97;;
14060;SDS011;7105;43.616;1.434;2022-10-17T05:26:58;7.88;;;3.88;;
14060;SDS011;7105;43.616;1.434;2022-10-17T05:29:24;9.45;;;3.90;;
14060;SDS011;7105;43.616;1.434;2022-10-17T05:31:50;7.97;;;4.00;;
14060;SDS011;7105;43.616;1.434;2022-10-17T05:34:15;8.18;;;3.75;;
14060;SDS011;7105;43.616;1.434;2022-10-17T05:36:41;11.45;;;3.65;;
14060;SDS011;7105;43.616;1.434;2022-10-17T05:39:07;12.60;;;3.85;;
14060;SDS011;7105;43.616;1.434;2022-10-17T05:41:33;8.32;;;3.55;;
14060;SDS011;7105;43.616;1.434;2022-10-17T05:43:59;10.38;;;3.95;;
14060;SDS011;7105;43.616;1.434;2022-10-17T05:46:24;8.75;;;3.92;;
14060;SDS011;7105;43.616;1.434;2022-10-17T05:48:50;11.82;;;4.13;;
14060;SDS011;7105;43.616;1.434;2022-10-17T05:51:16;13.02;;;4.35;;
14060;SDS011;7105;43.616;1.434;2022-10-17T05:53:42;11.68;;;4.30;;
14060;SDS011;7105;43.616;1.434;2022-10-17T05:56:09;8.40;;;3.80;;
14060;SDS011;7105;43.616;1.434;2022-10-17T05:58:38;10.10;;;4.07;;
14060;SDS011;7105;43.616;1.434;2022-10-17T06:01:05;8.00;;;3.97;;
14060;SDS011;7105;43.616;1.434;2022-10-17T06:03:31;6.88;;;3.40;;
14060;SDS011;7105;43.616;1.434;2022-10-17T06:06:07;7.25;;;3.63;;
14060;SDS011;7105;43.616;1.434;2022-10-17T06:08:36;9.90;;;3.88;;
14060;SDS011;7105;43.616;1.434;2022-10-17T06:11:01;9.15;;;4.00;;
14060;SDS011;7105;43.616;1.434;2022-10-17T06:13:29;10.88;;;3.80;;
14060;SDS011;7105;43.616;1.434;2022-10-17T06:15:54;9.10;;;3.88;;
14060;SDS011;7105;43.616;1.434;2022-10-17T06:18:20;8.70;;;3.30;;
14060;SDS011;7105;43.616;1.434;2022-10-17T06:20:46;11.60;;;3.92;;
14060;SDS011;7105;43.616;1.434;2022-10-17T06:23:12;11.40;;;3.95;;
14060;SDS011;7105;43.616;1.434;2022-10-17T06:25:37;12.90;;;3.90;;
14060;SDS011;7105;43.616;1.434;2022-10-17T06:28:03;10.98;;;4.15;;
14060;SDS011;7105;43.616;1.434;2022-10-17T06:30:29;8.05;;;3.70;;
14060;SDS011;7105;43.616;1.434;2022-10-17T06:32:55;9.82;;;3.63;;
14060;SDS011;7105;43.616;1.434;2022-10-17T06:35:20;8.75;;;3.90;;
14060;SDS011;7105;43.616;1.434;2022-10-17T06:37:46;8.55;;;3.80;;
14060;SDS011;7105;43.616;1.434;2022-10-17T06:40:12;9.57;;;3.63;;
14060;SDS011;7105;43.616;1.434;2022-10-17T06:42:40;13.88;;;3.70;;
14060;SDS011;7105;43.616;1.434;2022-10-17T06:45:07;7.57;;;4.28;;
14060;SDS011;7105;43.616;1.434;2022-10-17T06:47:34;8.68;;;4.20;;
14060;SDS011;7105;43.616;1.434;2022-10-17T06:49:59;10.18;;;3.40;;
14060;SDS011;7105;43.616;1.434;2022-10-17T06:52:25;8.93;;;4.00;;
14060;SDS011;7105;43.616;1.434;2022-10-17T06:54:51;10.40;;;4.30;;
14060;SDS011;7105;43.616;1.434;2022-10-17T06:57:17;11.73;;;3.88;;
14060;SDS011;7105;43.616;1.434;2022-10-17T06:59:42;10.60;;;3.63;;
14060;SDS011;7105;43.616;1.434;2022-10-17T07:02:09;9.38;;;3.58;;
14060;SDS011;7105;43.616;1.434;2022-10-17T07:04:35;9.95;;;3.33;;
14060;SDS011;7105;43.616;1.434;2022-10-17T07:07:01;10.55;;;3.88;;
14060;SDS011;7105;43.616;1.434;2022-10-17T07:09:27;7.35;;;3.78;;
14060;SDS011;7105;43.616;1.434;2022-10-17T07:11:54;9.80;;;3.50;;
14060;SDS011;7105;43.616;1.434;2022-10-17T07:14:19;13.00;;;3.55;;
14060;SDS011;7105;43.616;1.434;2022-10-17T07:16:45;9.18;;;4.10;;
14060;SDS011;7105;43.616;1.434;2022-10-17T07:19:11;8.88;;;3.42;;
14060;SDS011;7105;43.616;1.434;2022-10-17T07:21:37;9.77;;;4.22;;
14060;SDS011;7105;43.616;1.434;2022-10-17T07:24:02;8.40;;;3.42;;
14060;SDS011;7105;43.616;1.434;2022-10-17T07:26:29;11.02;;;3.38;;
14060;SDS011;7105;43.616;1.434;2022-10-17T07:28:55;7.13;;;3.60;;
14060;SDS011;7105;43.616;1.434;2022-10-17T07:31:21;13.65;;;3.88;;
14060;SDS011;7105;43.616;1.434;2022-10-17T07:33:47;9.40;;;3.60;;
14060;SDS011;7105;43.616;1.434;2022-10-17T07:36:13;13.00;;;3.10;;
14060;SDS011;7105;43.616;1.434;2022-10-17T07:38:39;9.48;;;3.17;;
14060;SDS011;7105;43.616;1.434;2022-10-17T07:41:06;8.20;;;3.40;;
14060;SDS011;7105;43.616;1.434;2022-10-17T07:43:33;10.98;;;3.45;;
14060;SDS011;7105;43.616;1.434;2022-10-17T07:46:00;9.27;;;3.22;;
14060;SDS011;7105;43.616;1.434;2022-10-17T07:48:28;6.15;;;2.72;;
14060;SDS011;7105;43.616;1.434;2022-10-17T07:50:54;10.02;;;2.95;;
14060;SDS011;7105;43.616;1.434;2022-10-17T07:53:19;7.85;;;3.10;;
14060;SDS011;7105;43.616;1.434;2022-10-17T07:55:45;7.70;;;2.72;;
14060;SDS011;7105;43.616;1.434;2022-10-17T07:58:12;8.52;;;3.28;;
14060;SDS011;7105;43.616;1.434;2022-10-17T08:00:38;12.15;;;3.08;;
14060;SDS011;7105;43.616;1.434;2022-10-17T08:03:04;5.82;;;3.05;;
14060;SDS011;7105;43.616;1.434;2022-10-17T08:05:30;8.80;;;3.38;;
14060;SDS011;7105;43.616;1.434;2022-10-17T08:07:56;9.75;;;3.53;;
14060;SDS011;7105;43.616;1.434;2022-10-17T08:10:22;8.10;;;3.28;;
14060;SDS011;7105;43.616;1.434;2022-10-17T08:12:52;8.93;;;3.85;;
14060;SDS011;7105;43.616;1.434;2022-10-17T08:15:18;9.27;;;3.42;;
14060;SDS011;7105;43.616;1.434;2022-10-17T08:17:44;11.35;;;3.38;;
14060;SDS011;7105;43.616;1.434;2022-10-17T08:20:09;7.30;;;3.22;;
14060;SDS011;7105;43.616;1.434;2022-10-17T08:22:35;9.02;;;3.15;;
14060;SDS011;7105;43.616;1.434;2022-10-17T08:25:01;9.88;;;3.33;;
14060;SDS011;7105;43.616;1.434;2022-10-17T08:27:27;7.88;;;3.22;;
14060;SDS011;7105;43.616;1.434;2022-10-17T08:29:53;8.35;;;3.13;;
14060;SDS011;7105;43.616;1.434;2022-10-17T08:32:22;7.90;;;3.53;;
14060;SDS011;7105;43.616;1.434;2022-10-17T08:34:50;10.98;;;3.40;;
14060;SDS011;7105;43.616;1.434;2022-10-17T08:37:16;8.23;;;2.90;;
14060;SDS011;7105;43.616;1.434;2022-10-17T08:39:42;8.23;;;2.95;;
14060;SDS011;7105;43.616;1.434;2022-10-17T08:47:43;9.10;;;3.35;;
14060;SDS011;7105;43.616;1.434;2022-10-17T08:50:12;7.25;;;3.40;;
14060;SDS011;7105;43.616;1.434;2022-10-17T08:55:32;10.95;;;3.33;;
14060;SDS011;7105;43.616;1.434;2022-10-17T08:58:02;9.50;;;3.70;;
14060;SDS011;7105;43.616;1.434;2022-10-17T09:00:36;9.07;;;3.35;;
14060;SDS011;7105;43.616;1.434;2022-10-17T09:03:13;9.15;;;3.70;;
14060;SDS011;7105;43.616;1.434;2022-10-17T09:05:42;9.23;;;3.42;;
14060;SDS011;7105;43.616;1.434;2022-10-17T09:08:38;10.90;;;3.58;;
14060;SDS011;7105;43.616;1.434;2022-10-17T09:12:01;10.10;;;3.40;;
14060;SDS011;7105;43.616;1.434;2022-10-17T09:19:19;12.25;;;3.97;;
14060;SDS011;7105;43.616;1.434;2022-10-17T09:22:11;9.43;;;3.60;;
14060;SDS011;7105;43.616;1.434;2022-10-17T09:27:26;10.68;;;3.50;;
14060;SDS011;7105;43.616;1.434;2022-10-17T09:32:50;9.38;;;4.25;;
14060;SDS011;7105;43.616;1.434;2022-10-17T09:35:16;10.70;;;3.72;;
14060;SDS011;7105;43.616;1.434;2022-10-17T09:37:43;13.77;;;4.28;;
14060;SDS011;7105;43.616;1.434;2022-10-17T09:43:05;12.23;;;4.30;;
14060;SDS011;7105;43.616;1.434;2022-10-17T09:45:37;9.13;;;3.80;;
14060;SDS011;7105;43.616;1.434;2022-10-17T09:48:28;8.65;;;3.53;;
14060;SDS011;7105;43.616;1.434;2022-10-17T09:51:01;11.68;;;3.75;;
14060;SDS011;7105;43.616;1.434;2022-10-17T09:53:36;8.55;;;3.58;;
14060;SDS011;7105;43.616;1.434;2022-10-17T09:56:23;12.98;;;3.97;;
14060;SDS011;7105;43.616;1.434;2022-10-17T09:58:50;14.05;;;4.55;;
14060;SDS011;7105;43.616;1.434;2022-10-17T10:01:23;15.38;;;4.30;;
14060;SDS011;7105;43.616;1.434;2022-10-17T10:04:09;9.52;;;3.83;;
14060;SDS011;7105;43.616;1.434;2022-10-17T10:06:36;8.98;;;3.65;;
14060;SDS011;7105;43.616;1.434;2022-10-17T10:09:02;8.48;;;3.63;;
14060;SDS011;7105;43.616;1.434;2022-10-17T10:14:36;8.68;;;4.20;;
14060;SDS011;7105;43.616;1.434;2022-10-17T10:17:04;11.00;;;4.13;;
14060;SDS011;7105;43.616;1.434;2022-10-17T10:19:49;12.27;;;4.80;;
14060;SDS011;7105;43.616;1.434;2022-10-17T10:22:16;10.85;;;3.70;;
14060;SDS011;7105;43.616;1.434;2022-10-17T10:24:43;10.32;;;4.18;;
14060;SDS011;7105;43.616;1.434;2022-10-17T10:27:13;11.93;;;4.28;;
14060;SDS011;7105;43.616;1.434;2022-10-17T10:29:41;13.65;;;4.25;;
14060;SDS011;7105;43.616;1.434;2022-10-17T10:32:20;10.48;;;4.03;;
14060;SDS011;7105;43.616;1.434;2022-10-17T10:34:54;15.07;;;4.47;;
14060;SDS011;7105;43.616;1.434;2022-10-17T10:37:43;11.73;;;4.25;;
14060;SDS011;7105;43.616;1.434;2022-10-17T10:40:18;10.63;;;4.22;;
14060;SDS011;7105;43.616;1.434;2022-10-17T10:42:45;10.27;;;4.18;;
14060;SDS011;7105;43.616;1.434;2022-10-17T10:45:24;10.15;;;4.38;;
14060;SDS011;7105;43.616;1.434;2022-10-17T10:47:52;12.23;;;4.85;;
14060;SDS011;7105;43.616;1.434;2022-10-17T10:50:28;10.20;;;4.50;;
14060;SDS011;7105;43.616;1.434;2022-10-17T10:55:55;9.73;;;4.70;;
14060;SDS011;7105;43.616;1.434;2022-10-17T11:04:26;8.48;;;4.20;;
14060;SDS011;7105;43.616;1.434;2022-10-17T11:07:09;9.75;;;4.30;;
14060;SDS011;7105;43.616;1.434;2022-10-17T11:15:25;16.02;;;5.10;;
14060;SDS011;7105;43.616;1.434;2022-10-17T11:22:55;11.15;;;4.60;;
14060;SDS011;7105;43.616;1.434;2022-10-17T11:25:34;13.15;;;4.50;;
14060;SDS011;7105;43.616;1.434;2022-10-17T11:28:08;12.40;;;4.75;;
14060;SDS011;7105;43.616;1.434;2022-10-17T11:31:24;9.32;;;4.70;;
14060;SDS011;7105;43.616;1.434;2022-10-17T11:33:45;10.73;;;4.53;;
14060;SDS011;7105;43.616;1.434;2022-10-17T11:36:19;10.65;;;4.80;;
14060;SDS011;7105;43.616;1.434;2022-10-17T11:38:51;10.48;;;4.60;;
14060;SDS011;7105;43.616;1.434;2022-10-17T11:41:43;10.57;;;4.43;;
14060;SDS011;7105;43.616;1.434;2022-10-17T11:47:36;11.80;;;4.93;;
14060;SDS011;7105;43.616;1.434;2022-10-17T11:50:02;9.20;;;4.57;;
14060;SDS011;7105;43.616;1.434;2022-10-17T11:52:50;12.93;;;4.25;;
14060;SDS011;7105;43.616;1.434;2022-10-17T11:55:34;13.32;;;4.43;;
14060;SDS011;7105;43.616;1.434;2022-10-17T12:12:01;10.73;;;4.38;;
14060;SDS011;7105;43.616;1.434;2022-10-17T12:17:28;9.88;;;4.05;;
14060;SDS011;7105;43.616;1.434;2022-10-17T12:25:22;11.55;;;3.83;;
14060;SDS011;7105;43.616;1.434;2022-10-17T12:27:50;11.57;;;4.13;;
14060;SDS011;7105;43.616;1.434;2022-10-17T12:30:29;10.60;;;4.28;;
14060;SDS011;7105;43.616;1.434;2022-10-17T12:32:56;10.43;;;3.70;;
14060;SDS011;7105;43.616;1.434;2022-10-17T12:35:31;11.60;;;5.13;;
14060;SDS011;7105;43.616;1.434;2022-10-17T12:37:59;10.15;;;3.58;;
14060;SDS011;7105;43.616;1.434;2022-10-17T12:45:51;12.63;;;4.35;;
14060;SDS011;7105;43.616;1.434;2022-10-17T12:56:10;12.02;;;3.63;;
14060;SDS011;7105;43.616;1.434;2022-10-17T12:58:37;8.80;;;3.70;;
14060;SDS011;7105;43.616;1.434;2022-10-17T13:01:08;8.77;;;3.47;;
14060;SDS011;7105;43.616;1.434;2022-10-17T13:03:46;13.00;;;3.63;;
14060;SDS011;7105;43.616;1.434;2022-10-17T13:06:21;9.18;;;3.58;;
14060;SDS011;7105;43.616;1.434;2022-10-17T13:11:26;11.38;;;3.85;;
14060;SDS011;7105;43.616;1.434;2022-10-17T13:13:55;8.95;;;3.50;;
14060;SDS011;7105;43.616;1.434;2022-10-17T13:17:06;11.68;;;3.58;;
14060;SDS011;7105;43.616;1.434;2022-10-17T13:19:17;8.23;;;3.50;;
14060;SDS011;7105;43.616;1.434;2022-10-17T13:21:54;11.20;;;3.70;;
14060;SDS011;7105;43.616;1.434;2022-10-17T13:24:28;12.60;;;3.72;;
14060;SDS011;7105;43.616;1.434;2022-10-17T13:27:05;8.70;;;3.42;;
14060;SDS011;7105;43.616;1.434;2022-10-17T13:29:45;12.55;;;3.97;;
14060;SDS011;7105;43.616;1.434;2022-10-17T13:32:11;12.85;;;4.03;;
14060;SDS011;7105;43.616;1.434;2022-10-17T13:34:36;9.25;;;3.50;;
14060;SDS011;7105;43.616;1.434;2022-10-17T13:37:03;9.32;;;3.50;;
14060;SDS011;7105;43.616;1.434;2022-10-17T13:39:38;9.20;;;3.50;;
14060;SDS011;7105;43.616;1.434;2022-10-17T13:42:05;11.43;;;3.78;;
14060;SDS011;7105;43.616;1.434;2022-10-17T13:44:46;13.27;;;3.40;;
14060;SDS011;7105;43.616;1.434;2022-10-17T13:50:12;11.32;;;3.75;;
14060;SDS011;7105;43.616;1.434;2022-10-17T13:56:04;13.20;;;3.85;;
14060;SDS011;7105;43.616;1.434;2022-10-17T13:58:31;9.93;;;3.22;;
14060;SDS011;7105;43.616;1.434;2022-10-17T14:01:04;9.50;;;2.88;;
14060;SDS011;7105;43.616;1.434;2022-10-17T14:03:31;8.52;;;3.40;;
14060;SDS011;7105;43.616;1.434;2022-10-17T14:06:01;10.30;;;3.60;;
14060;SDS011;7105;43.616;1.434;2022-10-17T14:08:28;9.15;;;3.38;;
14060;SDS011;7105;43.616;1.434;2022-10-17T14:10:56;8.32;;;3.42;;
14060;SDS011;7105;43.616;1.434;2022-10-17T14:13:23;10.68;;;3.58;;
14060;SDS011;7105;43.616;1.434;2022-10-17T14:15:52;11.05;;;3.42;;
14060;SDS011;7105;43.616;1.434;2022-10-17T14:18:20;11.02;;;3.80;;
14060;SDS011;7105;43.616;1.434;2022-10-17T14:20:50;12.70;;;3.53;;
14060;SDS011;7105;43.616;1.434;2022-10-17T14:23:30;9.27;;;3.47;;
14060;SDS011;7105;43.616;1.434;2022-10-17T14:26:07;11.55;;;3.95;;
14060;SDS011;7105;43.616;1.434;2022-10-17T14:28:36;9.43;;;4.18;;
14060;SDS011;7105;43.616;1.434;2022-10-17T14:33:53;10.38;;;3.13;;
14060;SDS011;7105;43.616;1.434;2022-10-17T14:36:20;9.15;;;3.88;;
14060;SDS011;7105;43.616;1.434;2022-10-17T14:38:54;10.20;;;3.53;;
14060;SDS011;7105;43.616;1.434;2022-10-17T14:41:22;12.95;;;4.05;;
14060;SDS011;7105;43.616;1.434;2022-10-17T14:43:51;9.27;;;3.40;;
14060;SDS011;7105;43.616;1.434;2022-10-17T14:46:22;9.32;;;4.00;;
14060;SDS011;7105;43.616;1.434;2022-10-17T14:48:52;12.13;;;3.85;;
14060;SDS011;7105;43.616;1.434;2022-10-17T14:52:08;10.45;;;3.28;;
14060;SDS011;7105;43.616;1.434;2022-10-17T14:54:37;11.60;;;3.72;;
14060;SDS011;7105;43.616;1.434;2022-10-17T14:59:57;12.85;;;3.78;;
14060;SDS011;7105;43.616;1.434;2022-10-17T15:02:24;9.88;;;3.70;;
14060;SDS011;7105;43.616;1.434;2022-10-17T15:04:51;11.43;;;3.75;;
14060;SDS011;7105;43.616;1.434;2022-10-17T15:07:17;13.15;;;3.65;;
14060;SDS011;7105;43.616;1.434;2022-10-17T15:09:46;12.98;;;3.65;;
14060;SDS011;7105;43.616;1.434;2022-10-17T15:12:16;10.63;;;3.90;;
14060;SDS011;7105;43.616;1.434;2022-10-17T15:14:44;9.93;;;3.42;;
14060;SDS011;7105;43.616;1.434;2022-10-17T15:17:19;9.05;;;3.40;;
14060;SDS011;7105;43.616;1.434;2022-10-17T15:19:47;12.05;;;4.07;;
14060;SDS011;7105;43.616;1.434;2022-10-17T15:22:14;14.40;;;3.53;;
14060;SDS011;7105;43.616;1.434;2022-10-17T15:24:40;10.52;;;3.63;;
14060;SDS011;7105;43.616;1.434;2022-10-17T15:27:12;9.68;;;3.35;;
14060;SDS011;7105;43.616;1.434;2022-10-17T15:29:43;10.45;;;3.92;;
14060;SDS011;7105;43.616;1.434;2022-10-17T15:32:09;13.00;;;3.53;;
14060;SDS011;7105;43.616;1.434;2022-10-17T15:34:35;8.15;;;3.80;;
14060;SDS011;7105;43.616;1.434;2022-10-17T15:37:01;11.02;;;3.28;;
14060;SDS011;7105;43.616;1.434;2022-10-17T15:39:29;13.63;;;3.55;;
14060;SDS011;7105;43.616;1.434;2022-10-17T15:41:54;8.82;;;3.08;;
14060;SDS011;7105;43.616;1.434;2022-10-17T15:44:20;6.90;;;3.55;;
14060;SDS011;7105;43.616;1.434;2022-10-17T15:46:45;14.40;;;3.72;;
14060;SDS011;7105;43.616;1.434;2022-10-17T15:49:12;8.70;;;3.60;;
14060;SDS011;7105;43.616;1.434;2022-10-17T15:51:39;10.65;;;3.55;;
14060;SDS011;7105;43.616;1.434;2022-10-17T15:54:05;11.05;;;3.70;;
14060;SDS011;7105;43.616;1.434;2022-10-17T15:56:32;10.57;;;3.38;;
14060;SDS011;7105;43.616;1.434;2022-10-17T15:59:04;10.57;;;3.80;;
14060;SDS011;7105;43.616;1.434;2022-10-17T16:01:34;9.05;;;3.80;;
14060;SDS011;7105;43.616;1.434;2022-10-17T16:04:00;16.15;;;4.07;;
14060;SDS011;7105;43.616;1.434;2022-10-17T16:06:26;10.60;;;3.83;;
14060;SDS011;7105;43.616;1.434;2022-10-17T16:08:53;10.88;;;3.88;;
14060;SDS011;7105;43.616;1.434;2022-10-17T16:14:00;7.95;;;3.38;;
14060;SDS011;7105;43.616;1.434;2022-10-17T16:16:27;10.68;;;3.60;;
14060;SDS011;7105;43.616;1.434;2022-10-17T16:18:53;10.23;;;4.03;;
14060;SDS011;7105;43.616;1.434;2022-10-17T16:21:19;8.63;;;3.22;;
14060;SDS011;7105;43.616;1.434;2022-10-17T16:23:49;9.07;;;3.75;;
14060;SDS011;7105;43.616;1.434;2022-10-17T16:26:14;10.10;;;3.85;;
14060;SDS011;7105;43.616;1.434;2022-10-17T16:28:41;13.07;;;3.92;;
14060;SDS011;7105;43.616;1.434;2022-10-17T16:31:16;12.48;;;4.45;;
14060;SDS011;7105;43.616;1.434;2022-10-17T16:33:46;10.38;;;4.15;;
14060;SDS011;7105;43.616;1.434;2022-10-17T16:36:13;8.63;;;4.00;;
14060;SDS011;7105;43.616;1.434;2022-10-17T16:38:39;8.70;;;4.20;;
14060;SDS011;7105;43.616;1.434;2022-10-17T16:41:08;12.20;;;4.25;;
14060;SDS011;7105;43.616;1.434;2022-10-17T16:43:46;11.07;;;3.92;;
14060;SDS011;7105;43.616;1.434;2022-10-17T16:46:13;8.82;;;4.40;;
14060;SDS011;7105;43.616;1.434;2022-10-17T16:48:38;12.65;;;4.32;;
14060;SDS011;7105;43.616;1.434;2022-10-17T16:51:05;16.52;;;4.32;;
14060;SDS011;7105;43.616;1.434;2022-10-17T16:53:30;12.07;;;4.55;;
14060;SDS011;7105;43.616;1.434;2022-10-17T16:56:00;12.00;;;4.47;;
14060;SDS011;7105;43.616;1.434;2022-10-17T16:58:27;12.45;;;4.20;;
14060;SDS011;7105;43.616;1.434;2022-10-17T17:00:55;9.70;;;4.07;;
14060;SDS011;7105;43.616;1.434;2022-10-17T17:03:24;10.80;;;3.67;;
14060;SDS011;7105;43.616;1.434;2022-10-17T17:05:50;12.90;;;4.35;;
14060;SDS011;7105;43.616;1.434;2022-10-17T17:08:16;13.48;;;4.28;;
14060;SDS011;7105;43.616;1.434;2022-10-17T17:10:43;10.93;;;3.60;;
14060;SDS011;7105;43.616;1.434;2022-10-17T17:13:14;9.55;;;4.00;;
14060;SDS011;7105;43.616;1.434;2022-10-17T17:15:39;10.48;;;4.47;;
14060;SDS011;7105;43.616;1.434;2022-10-17T17:18:05;10.93;;;4.15;;
14060;SDS011;7105;43.616;1.434;2022-10-17T17:20:31;11.02;;;3.85;;
14060;SDS011;7105;43.616;1.434;2022-10-17T17:22:58;12.90;;;3.65;;